sensor_id;sensor_type;location;lat;lon;timestamp;P1;durP1;ratioP1;P2;durP2;ratioP2
68923;SDS011;55961;52.156;20.942;2023-02-10T00:03:34;22.20;;;8.45;;
68923;SDS011;55961;52.156;20.942;2023-02-10T00:06:01;26.50;;;10.18;;
68923;SDS011;55961;52.156;20.942;2023-02-10T00:08:28;22.90;;;9.07;;
68923;SDS011;55961;52.156;20.942;2023-02-10T00:10:58;26.25;;;9.25;;
68923;SDS011;55961;52.156;20.942;2023-02-10T00:13:26;18.73;;;7.55;;
68923;SDS011;55961;52.156;20.942;2023-02-10T00:15:53;21.10;;;7.78;;
68923;SDS011;55961;52.156;20.942;2023-02-10T00:18:19;25.13;;;8.27;;
68923;SDS011;55961;52.156;20.942;2023-02-10T00:20:45;21.00;;;8.17;;
68923;SDS011;55961;52.156;20.942;2023-02-10T00:23:11;19.30;;;7.45;;
68923;SDS011;55961;52.156;20.942;2023-02-10T00:25:37;19.98;;;7.88;;
68923;SDS011;55961;52.156;20.942;2023-02-10T00:28:03;24.47;;;9.87;;
68923;SDS011;55961;52.156;20.942;2023-02-10T00:30:30;21.05;;;8.85;;
68923;SDS011;55961;52.156;20.942;2023-02-10T00:32:56;26.67;;;10.80;;
68923;SDS011;55961;52.156;20.942;2023-02-10T00:35:22;22.70;;;9.00;;
68923;SDS011;55961;52.156;20.942;2023-02-10T00:37:48;24.65;;;10.07;;
68923;SDS011;55961;52.156;20.942;2023-02-10T00:40:15;22.53;;;6.73;;
68923;SDS011;55961;52.156;20.942;2023-02-10T00:42:41;19.70;;;7.15;;
68923;SDS011;55961;52.156;20.942;2023-02-10T00:45:08;21.45;;;7.72;;
68923;SDS011;55961;52.156;20.942;2023-02-10T00:47:34;26.05;;;9.45;;
68923;SDS011;55961;52.156;20.942;2023-02-10T00:50:00;26.05;;;10.07;;
68923;SDS011;55961;52.156;20.942;2023-02-10T00:52:26;24.90;;;8.33;;
68923;SDS011;55961;52.156;20.942;2023-02-10T00:54:52;19.05;;;7.03;;
68923;SDS011;55961;52.156;20.942;2023-02-10T00:57:18;17.38;;;7.32;;
68923;SDS011;55961;52.156;20.942;2023-02-10T00:59:44;21.23;;;7.75;;
68923;SDS011;55961;52.156;20.942;2023-02-10T01:02:11;23.67;;;9.53;;
68923;SDS011;55961;52.156;20.942;2023-02-10T01:04:37;22.08;;;7.85;;
68923;SDS011;55961;52.156;20.942;2023-02-10T01:07:03;21.48;;;9.00;;
68923;SDS011;55961;52.156;20.942;2023-02-10T01:09:29;24.13;;;9.38;;
68923;SDS011;55961;52.156;20.942;2023-02-10T01:11:54;28.47;;;10.27;;
68923;SDS011;55961;52.156;20.942;2023-02-10T01:14:21;19.90;;;6.88;;
68923;SDS011;55961;52.156;20.942;2023-02-10T01:16:46;25.00;;;8.88;;
68923;SDS011;55961;52.156;20.942;2023-02-10T01:19:12;19.67;;;7.20;;
68923;SDS011;55961;52.156;20.942;2023-02-10T01:21:38;19.33;;;7.07;;
68923;SDS011;55961;52.156;20.942;2023-02-10T01:24:05;21.20;;;9.38;;
68923;SDS011;55961;52.156;20.942;2023-02-10T01:26:32;20.40;;;9.32;;
68923;SDS011;55961;52.156;20.942;2023-02-10T01:28:58;23.65;;;8.35;;
68923;SDS011;55961;52.156;20.942;2023-02-10T01:31:25;18.33;;;7.00;;
68923;SDS011;55961;52.156;20.942;2023-02-10T01:33:51;18.75;;;7.97;;
68923;SDS011;55961;52.156;20.942;2023-02-10T01:36:20;20.55;;;6.50;;
68923;SDS011;55961;52.156;20.942;2023-02-10T01:38:48;17.00;;;6.75;;
68923;SDS011;55961;52.156;20.942;2023-02-10T01:41:15;18.67;;;7.70;;
68923;SDS011;55961;52.156;20.942;2023-02-10T01:46:19;25.45;;;9.10;;
68923;SDS011;55961;52.156;20.942;2023-02-10T01:48:45;14.30;;;6.60;;
68923;SDS011;55961;52.156;20.942;2023-02-10T01:51:10;25.13;;;7.72;;
68923;SDS011;55961;52.156;20.942;2023-02-10T01:53:37;16.73;;;4.90;;
68923;SDS011;55961;52.156;20.942;2023-02-10T01:56:04;21.38;;;8.27;;
68923;SDS011;55961;52.156;20.942;2023-02-10T01:58:31;20.88;;;7.35;;
68923;SDS011;55961;52.156;20.942;2023-02-10T02:00:58;22.83;;;7.78;;
68923;SDS011;55961;52.156;20.942;2023-02-10T02:03:25;22.15;;;8.65;;
68923;SDS011;55961;52.156;20.942;2023-02-10T02:05:51;18.73;;;8.13;;
68923;SDS011;55961;52.156;20.942;2023-02-10T02:08:18;21.45;;;8.05;;
68923;SDS011;55961;52.156;20.942;2023-02-10T02:10:58;16.08;;;6.05;;
68923;SDS011;55961;52.156;20.942;2023-02-10T02:16:51;24.58;;;9.95;;
68923;SDS011;55961;52.156;20.942;2023-02-10T02:27:51;20.58;;;7.13;;
68923;SDS011;55961;52.156;20.942;2023-02-10T02:30:45;20.15;;;7.18;;
68923;SDS011;55961;52.156;20.942;2023-02-10T02:33:16;20.40;;;7.53;;
68923;SDS011;55961;52.156;20.942;2023-02-10T02:36:29;18.38;;;7.32;;
68923;SDS011;55961;52.156;20.942;2023-02-10T02:38:38;20.40;;;8.25;;
68923;SDS011;55961;52.156;20.942;2023-02-10T02:41:05;19.38;;;7.82;;
68923;SDS011;55961;52.156;20.942;2023-02-10T02:43:32;24.70;;;8.52;;
68923;SDS011;55961;52.156;20.942;2023-02-10T02:51:22;17.80;;;6.57;;
68923;SDS011;55961;52.156;20.942;2023-02-10T02:54:54;23.25;;;7.85;;
68923;SDS011;55961;52.156;20.942;2023-02-10T03:02:15;20.38;;;6.60;;
68923;SDS011;55961;52.156;20.942;2023-02-10T03:04:44;27.88;;;8.30;;
68923;SDS011;55961;52.156;20.942;2023-02-10T03:07:11;23.52;;;8.05;;
68923;SDS011;55961;52.156;20.942;2023-02-10T03:09:37;18.63;;;6.77;;
68923;SDS011;55961;52.156;20.942;2023-02-10T03:12:03;18.63;;;8.77;;
68923;SDS011;55961;52.156;20.942;2023-02-10T03:14:29;20.20;;;7.22;;
68923;SDS011;55961;52.156;20.942;2023-02-10T03:16:55;23.85;;;9.52;;
68923;SDS011;55961;52.156;20.942;2023-02-10T03:19:21;18.80;;;6.93;;
68923;SDS011;55961;52.156;20.942;2023-02-10T03:21:47;18.25;;;7.03;;
68923;SDS011;55961;52.156;20.942;2023-02-10T03:24:13;21.45;;;7.75;;
68923;SDS011;55961;52.156;20.942;2023-02-10T03:26:40;18.52;;;7.07;;
68923;SDS011;55961;52.156;20.942;2023-02-10T03:29:06;17.20;;;6.57;;
68923;SDS011;55961;52.156;20.942;2023-02-10T03:31:32;19.10;;;7.32;;
68923;SDS011;55961;52.156;20.942;2023-02-10T03:33:58;24.50;;;8.30;;
68923;SDS011;55961;52.156;20.942;2023-02-10T03:36:24;23.45;;;8.93;;
68923;SDS011;55961;52.156;20.942;2023-02-10T03:38:50;20.20;;;8.00;;
68923;SDS011;55961;52.156;20.942;2023-02-10T03:41:16;15.93;;;5.75;;
68923;SDS011;55961;52.156;20.942;2023-02-10T03:43:41;22.33;;;8.33;;
68923;SDS011;55961;52.156;20.942;2023-02-10T03:46:08;17.20;;;7.22;;
68923;SDS011;55961;52.156;20.942;2023-02-10T03:48:34;19.90;;;7.95;;
68923;SDS011;55961;52.156;20.942;2023-02-10T03:51:01;24.38;;;9.52;;
68923;SDS011;55961;52.156;20.942;2023-02-10T03:53:29;20.58;;;7.45;;
68923;SDS011;55961;52.156;20.942;2023-02-10T03:55:56;26.13;;;9.27;;
68923;SDS011;55961;52.156;20.942;2023-02-10T03:58:22;15.23;;;6.32;;
68923;SDS011;55961;52.156;20.942;2023-02-10T04:00:48;20.00;;;7.10;;
68923;SDS011;55961;52.156;20.942;2023-02-10T04:03:14;17.95;;;6.10;;
68923;SDS011;55961;52.156;20.942;2023-02-10T04:05:40;14.20;;;4.93;;
68923;SDS011;55961;52.156;20.942;2023-02-10T04:08:07;22.27;;;7.37;;
68923;SDS011;55961;52.156;20.942;2023-02-10T04:10:34;21.10;;;8.20;;
68923;SDS011;55961;52.156;20.942;2023-02-10T04:13:00;17.90;;;7.35;;
68923;SDS011;55961;52.156;20.942;2023-02-10T04:15:26;20.42;;;7.38;;
68923;SDS011;55961;52.156;20.942;2023-02-10T04:17:52;22.03;;;6.90;;
68923;SDS011;55961;52.156;20.942;2023-02-10T04:20:18;19.20;;;8.25;;
68923;SDS011;55961;52.156;20.942;2023-02-10T04:22:44;17.88;;;6.72;;
68923;SDS011;55961;52.156;20.942;2023-02-10T04:25:10;19.23;;;7.80;;
68923;SDS011;55961;52.156;20.942;2023-02-10T04:27:36;14.25;;;6.38;;
68923;SDS011;55961;52.156;20.942;2023-02-10T04:30:02;20.48;;;8.13;;
68923;SDS011;55961;52.156;20.942;2023-02-10T04:32:27;13.00;;;4.80;;
68923;SDS011;55961;52.156;20.942;2023-02-10T04:34:54;26.08;;;9.35;;
68923;SDS011;55961;52.156;20.942;2023-02-10T04:37:19;24.07;;;9.27;;
68923;SDS011;55961;52.156;20.942;2023-02-10T04:39:45;24.13;;;9.10;;
68923;SDS011;55961;52.156;20.942;2023-02-10T04:42:11;20.23;;;8.43;;
68923;SDS011;55961;52.156;20.942;2023-02-10T04:44:37;21.37;;;8.37;;
68923;SDS011;55961;52.156;20.942;2023-02-10T04:47:03;24.10;;;9.10;;
68923;SDS011;55961;52.156;20.942;2023-02-10T04:49:29;18.55;;;6.15;;
68923;SDS011;55961;52.156;20.942;2023-02-10T04:51:55;16.30;;;8.23;;
68923;SDS011;55961;52.156;20.942;2023-02-10T04:54:21;20.00;;;7.80;;
68923;SDS011;55961;52.156;20.942;2023-02-10T04:56:47;22.38;;;8.60;;
68923;SDS011;55961;52.156;20.942;2023-02-10T04:59:13;29.27;;;10.00;;
68923;SDS011;55961;52.156;20.942;2023-02-10T05:01:39;21.97;;;7.00;;
68923;SDS011;55961;52.156;20.942;2023-02-10T05:04:05;19.88;;;7.63;;
68923;SDS011;55961;52.156;20.942;2023-02-10T05:06:31;21.40;;;8.13;;
68923;SDS011;55961;52.156;20.942;2023-02-10T05:08:58;30.03;;;9.87;;
68923;SDS011;55961;52.156;20.942;2023-02-10T05:11:23;17.67;;;7.07;;
68923;SDS011;55961;52.156;20.942;2023-02-10T05:13:50;21.10;;;7.15;;
68923;SDS011;55961;52.156;20.942;2023-02-10T05:16:16;20.77;;;6.63;;
68923;SDS011;55961;52.156;20.942;2023-02-10T05:18:42;22.05;;;8.43;;
68923;SDS011;55961;52.156;20.942;2023-02-10T05:21:09;18.90;;;7.28;;
68923;SDS011;55961;52.156;20.942;2023-02-10T05:23:38;23.90;;;7.75;;
68923;SDS011;55961;52.156;20.942;2023-02-10T05:26:05;24.80;;;9.13;;
68923;SDS011;55961;52.156;20.942;2023-02-10T05:28:31;16.30;;;6.27;;
68923;SDS011;55961;52.156;20.942;2023-02-10T05:30:57;27.48;;;9.95;;
68923;SDS011;55961;52.156;20.942;2023-02-10T05:33:23;23.13;;;8.85;;
68923;SDS011;55961;52.156;20.942;2023-02-10T05:35:49;17.10;;;6.50;;
68923;SDS011;55961;52.156;20.942;2023-02-10T05:38:15;17.80;;;7.18;;
68923;SDS011;55961;52.156;20.942;2023-02-10T05:40:40;20.35;;;7.35;;
68923;SDS011;55961;52.156;20.942;2023-02-10T05:43:06;18.50;;;7.13;;
68923;SDS011;55961;52.156;20.942;2023-02-10T05:45:34;23.55;;;8.82;;
68923;SDS011;55961;52.156;20.942;2023-02-10T05:48:01;16.63;;;7.70;;
68923;SDS011;55961;52.156;20.942;2023-02-10T05:50:26;25.08;;;8.88;;
68923;SDS011;55961;52.156;20.942;2023-02-10T05:52:52;24.10;;;8.90;;
68923;SDS011;55961;52.156;20.942;2023-02-10T05:55:18;16.85;;;7.18;;
68923;SDS011;55961;52.156;20.942;2023-02-10T05:57:44;20.58;;;5.93;;
68923;SDS011;55961;52.156;20.942;2023-02-10T06:00:10;22.53;;;8.50;;
68923;SDS011;55961;52.156;20.942;2023-02-10T06:02:37;21.98;;;8.95;;
68923;SDS011;55961;52.156;20.942;2023-02-10T06:05:03;18.55;;;7.78;;
68923;SDS011;55961;52.156;20.942;2023-02-10T06:07:29;22.60;;;9.05;;
68923;SDS011;55961;52.156;20.942;2023-02-10T06:09:55;18.60;;;7.07;;
68923;SDS011;55961;52.156;20.942;2023-02-10T06:12:21;18.60;;;7.05;;
68923;SDS011;55961;52.156;20.942;2023-02-10T06:14:47;15.67;;;5.43;;
68923;SDS011;55961;52.156;20.942;2023-02-10T06:17:13;18.17;;;6.22;;
68923;SDS011;55961;52.156;20.942;2023-02-10T06:19:39;24.38;;;8.55;;
68923;SDS011;55961;52.156;20.942;2023-02-10T06:22:06;24.48;;;8.63;;
68923;SDS011;55961;52.156;20.942;2023-02-10T06:24:33;24.93;;;8.93;;
68923;SDS011;55961;52.156;20.942;2023-02-10T06:26:59;23.45;;;10.00;;
68923;SDS011;55961;52.156;20.942;2023-02-10T06:29:25;24.05;;;8.82;;
68923;SDS011;55961;52.156;20.942;2023-02-10T06:31:51;39.28;;;14.00;;
68923;SDS011;55961;52.156;20.942;2023-02-10T06:34:17;30.30;;;10.23;;
68923;SDS011;55961;52.156;20.942;2023-02-10T06:36:44;22.73;;;8.25;;
68923;SDS011;55961;52.156;20.942;2023-02-10T06:39:09;23.17;;;9.23;;
68923;SDS011;55961;52.156;20.942;2023-02-10T06:41:35;25.95;;;9.43;;
68923;SDS011;55961;52.156;20.942;2023-02-10T06:44:01;26.40;;;9.03;;
68923;SDS011;55961;52.156;20.942;2023-02-10T06:46:27;25.05;;;8.18;;
68923;SDS011;55961;52.156;20.942;2023-02-10T06:48:53;23.97;;;10.27;;
68923;SDS011;55961;52.156;20.942;2023-02-10T06:51:19;24.20;;;10.68;;
68923;SDS011;55961;52.156;20.942;2023-02-10T06:53:45;22.52;;;9.23;;
68923;SDS011;55961;52.156;20.942;2023-02-10T06:56:11;22.83;;;8.30;;
68923;SDS011;55961;52.156;20.942;2023-02-10T06:58:37;22.45;;;8.55;;
68923;SDS011;55961;52.156;20.942;2023-02-10T07:01:10;23.77;;;9.70;;
68923;SDS011;55961;52.156;20.942;2023-02-10T07:03:38;20.58;;;8.48;;
68923;SDS011;55961;52.156;20.942;2023-02-10T07:06:04;19.77;;;8.30;;
68923;SDS011;55961;52.156;20.942;2023-02-10T07:08:30;19.00;;;8.13;;
68923;SDS011;55961;52.156;20.942;2023-02-10T07:10:57;18.42;;;8.52;;
68923;SDS011;55961;52.156;20.942;2023-02-10T07:13:23;17.33;;;8.00;;
68923;SDS011;55961;52.156;20.942;2023-02-10T07:15:49;17.50;;;5.88;;
68923;SDS011;55961;52.156;20.942;2023-02-10T07:18:14;19.97;;;8.53;;
68923;SDS011;55961;52.156;20.942;2023-02-10T07:20:41;23.23;;;10.45;;
68923;SDS011;55961;52.156;20.942;2023-02-10T07:23:07;21.58;;;8.75;;
68923;SDS011;55961;52.156;20.942;2023-02-10T07:25:33;22.88;;;10.23;;
68923;SDS011;55961;52.156;20.942;2023-02-10T07:27:59;26.73;;;10.80;;
68923;SDS011;55961;52.156;20.942;2023-02-10T07:30:25;24.92;;;9.82;;
68923;SDS011;55961;52.156;20.942;2023-02-10T07:32:50;24.73;;;9.35;;
68923;SDS011;55961;52.156;20.942;2023-02-10T07:35:16;28.40;;;10.80;;
68923;SDS011;55961;52.156;20.942;2023-02-10T07:37:42;21.50;;;8.63;;
68923;SDS011;55961;52.156;20.942;2023-02-10T07:40:09;21.70;;;8.82;;
68923;SDS011;55961;52.156;20.942;2023-02-10T07:42:35;24.95;;;11.43;;
68923;SDS011;55961;52.156;20.942;2023-02-10T07:45:02;23.60;;;10.20;;
68923;SDS011;55961;52.156;20.942;2023-02-10T07:47:28;16.80;;;7.00;;
68923;SDS011;55961;52.156;20.942;2023-02-10T07:49:54;21.45;;;7.85;;
68923;SDS011;55961;52.156;20.942;2023-02-10T07:52:22;24.05;;;10.05;;
68923;SDS011;55961;52.156;20.942;2023-02-10T07:54:49;25.38;;;10.35;;
68923;SDS011;55961;52.156;20.942;2023-02-10T07:57:15;29.92;;;9.88;;
68923;SDS011;55961;52.156;20.942;2023-02-10T07:59:42;35.23;;;11.87;;
68923;SDS011;55961;52.156;20.942;2023-02-10T08:02:09;21.83;;;8.00;;
68923;SDS011;55961;52.156;20.942;2023-02-10T08:04:35;28.85;;;10.00;;
68923;SDS011;55961;52.156;20.942;2023-02-10T08:07:01;24.03;;;9.03;;
68923;SDS011;55961;52.156;20.942;2023-02-10T08:09:28;24.52;;;10.32;;
68923;SDS011;55961;52.156;20.942;2023-02-10T08:11:54;29.35;;;10.85;;
68923;SDS011;55961;52.156;20.942;2023-02-10T08:14:20;26.35;;;10.55;;
68923;SDS011;55961;52.156;20.942;2023-02-10T08:16:45;24.37;;;10.20;;
68923;SDS011;55961;52.156;20.942;2023-02-10T08:19:12;23.88;;;10.50;;
68923;SDS011;55961;52.156;20.942;2023-02-10T08:21:38;24.40;;;11.13;;
68923;SDS011;55961;52.156;20.942;2023-02-10T08:24:04;22.88;;;9.63;;
68923;SDS011;55961;52.156;20.942;2023-02-10T08:26:29;26.10;;;10.32;;
68923;SDS011;55961;52.156;20.942;2023-02-10T08:28:56;27.77;;;10.23;;
68923;SDS011;55961;52.156;20.942;2023-02-10T08:31:23;22.17;;;8.33;;
68923;SDS011;55961;52.156;20.942;2023-02-10T08:33:49;21.63;;;7.78;;
68923;SDS011;55961;52.156;20.942;2023-02-10T08:36:16;23.73;;;8.02;;
68923;SDS011;55961;52.156;20.942;2023-02-10T08:38:44;26.08;;;9.55;;
68923;SDS011;55961;52.156;20.942;2023-02-10T08:41:10;24.93;;;11.33;;
68923;SDS011;55961;52.156;20.942;2023-02-10T08:43:36;22.60;;;10.48;;
68923;SDS011;55961;52.156;20.942;2023-02-10T08:46:02;17.50;;;9.00;;
68923;SDS011;55961;52.156;20.942;2023-02-10T08:48:29;31.33;;;11.27;;
68923;SDS011;55961;52.156;20.942;2023-02-10T08:50:55;24.60;;;9.50;;
68923;SDS011;55961;52.156;20.942;2023-02-10T08:53:23;25.85;;;9.73;;
68923;SDS011;55961;52.156;20.942;2023-02-10T08:55:59;27.90;;;12.27;;
68923;SDS011;55961;52.156;20.942;2023-02-10T08:58:30;31.63;;;10.43;;
68923;SDS011;55961;52.156;20.942;2023-02-10T09:00:56;26.97;;;11.50;;
68923;SDS011;55961;52.156;20.942;2023-02-10T09:03:22;29.10;;;12.70;;
68923;SDS011;55961;52.156;20.942;2023-02-10T09:05:50;20.02;;;9.15;;
68923;SDS011;55961;52.156;20.942;2023-02-10T09:08:16;24.52;;;9.25;;
68923;SDS011;55961;52.156;20.942;2023-02-10T09:10:43;24.45;;;9.90;;
68923;SDS011;55961;52.156;20.942;2023-02-10T09:13:10;22.77;;;9.77;;
68923;SDS011;55961;52.156;20.942;2023-02-10T09:15:37;17.63;;;8.18;;
68923;SDS011;55961;52.156;20.942;2023-02-10T09:18:04;24.48;;;9.57;;
68923;SDS011;55961;52.156;20.942;2023-02-10T09:20:31;24.17;;;9.85;;
68923;SDS011;55961;52.156;20.942;2023-02-10T09:22:57;30.48;;;11.43;;
68923;SDS011;55961;52.156;20.942;2023-02-10T09:25:23;20.13;;;7.83;;
68923;SDS011;55961;52.156;20.942;2023-02-10T09:27:51;26.60;;;10.80;;
68923;SDS011;55961;52.156;20.942;2023-02-10T09:30:18;33.80;;;11.68;;
68923;SDS011;55961;52.156;20.942;2023-02-10T09:32:44;23.98;;;10.48;;
68923;SDS011;55961;52.156;20.942;2023-02-10T09:35:10;23.27;;;9.80;;
68923;SDS011;55961;52.156;20.942;2023-02-10T09:37:36;23.38;;;9.68;;
68923;SDS011;55961;52.156;20.942;2023-02-10T09:40:02;18.52;;;7.80;;
68923;SDS011;55961;52.156;20.942;2023-02-10T09:45:13;25.95;;;10.18;;
68923;SDS011;55961;52.156;20.942;2023-02-10T09:47:50;26.05;;;10.80;;
68923;SDS011;55961;52.156;20.942;2023-02-10T09:53:12;20.45;;;9.20;;
68923;SDS011;55961;52.156;20.942;2023-02-10T09:55:46;29.67;;;10.23;;
68923;SDS011;55961;52.156;20.942;2023-02-10T10:01:10;23.30;;;10.00;;
68923;SDS011;55961;52.156;20.942;2023-02-10T10:04:33;27.65;;;11.98;;
68923;SDS011;55961;52.156;20.942;2023-02-10T10:06:49;30.63;;;11.95;;
68923;SDS011;55961;52.156;20.942;2023-02-10T10:09:22;23.57;;;8.23;;
68923;SDS011;55961;52.156;20.942;2023-02-10T10:12:15;24.13;;;9.25;;
68923;SDS011;55961;52.156;20.942;2023-02-10T10:14:43;38.65;;;12.27;;
68923;SDS011;55961;52.156;20.942;2023-02-10T10:17:14;24.92;;;9.10;;
68923;SDS011;55961;52.156;20.942;2023-02-10T10:31:47;26.27;;;10.77;;
68923;SDS011;55961;52.156;20.942;2023-02-10T10:34:18;31.00;;;13.43;;
68923;SDS011;55961;52.156;20.942;2023-02-10T10:36:50;21.20;;;8.53;;
68923;SDS011;55961;52.156;20.942;2023-02-10T10:39:23;19.70;;;7.90;;
68923;SDS011;55961;52.156;20.942;2023-02-10T10:42:15;32.05;;;10.90;;
68923;SDS011;55961;52.156;20.942;2023-02-10T10:44:52;19.92;;;8.60;;
68923;SDS011;55961;52.156;20.942;2023-02-10T10:50:10;29.77;;;11.93;;
68923;SDS011;55961;52.156;20.942;2023-02-10T10:52:43;22.77;;;9.00;;
68923;SDS011;55961;52.156;20.942;2023-02-10T10:58:21;21.20;;;10.27;;
68923;SDS011;55961;52.156;20.942;2023-02-10T11:00:54;19.60;;;8.75;;
68923;SDS011;55961;52.156;20.942;2023-02-10T11:03:22;27.27;;;10.80;;
68923;SDS011;55961;52.156;20.942;2023-02-10T11:11:30;30.05;;;12.63;;
68923;SDS011;55961;52.156;20.942;2023-02-10T11:14:02;25.03;;;11.37;;
68923;SDS011;55961;52.156;20.942;2023-02-10T11:16:41;25.92;;;11.20;;
68923;SDS011;55961;52.156;20.942;2023-02-10T11:19:16;39.13;;;11.07;;
68923;SDS011;55961;52.156;20.942;2023-02-10T11:21:44;31.02;;;12.93;;
68923;SDS011;55961;52.156;20.942;2023-02-10T11:24:21;27.75;;;11.63;;
68923;SDS011;55961;52.156;20.942;2023-02-10T11:26:54;23.03;;;9.53;;
68923;SDS011;55961;52.156;20.942;2023-02-10T11:29:20;32.60;;;12.93;;
68923;SDS011;55961;52.156;20.942;2023-02-10T11:31:46;28.67;;;11.48;;
68923;SDS011;55961;52.156;20.942;2023-02-10T11:36:59;29.57;;;12.10;;
68923;SDS011;55961;52.156;20.942;2023-02-10T11:39:37;36.20;;;14.65;;
68923;SDS011;55961;52.156;20.942;2023-02-10T11:42:11;23.02;;;10.25;;
68923;SDS011;55961;52.156;20.942;2023-02-10T11:47:32;21.95;;;10.68;;
68923;SDS011;55961;52.156;20.942;2023-02-10T11:49:59;25.40;;;10.33;;
68923;SDS011;55961;52.156;20.942;2023-02-10T11:52:28;32.17;;;10.27;;
68923;SDS011;55961;52.156;20.942;2023-02-10T11:54:55;23.27;;;8.95;;
68923;SDS011;55961;52.156;20.942;2023-02-10T12:03:05;20.80;;;9.30;;
68923;SDS011;55961;52.156;20.942;2023-02-10T12:05:54;29.30;;;11.77;;
68923;SDS011;55961;52.156;20.942;2023-02-10T12:11:48;24.65;;;10.23;;
68923;SDS011;55961;52.156;20.942;2023-02-10T12:25:52;23.88;;;10.05;;
68923;SDS011;55961;52.156;20.942;2023-02-10T12:53:47;34.90;;;13.57;;
68923;SDS011;55961;52.156;20.942;2023-02-10T12:56:26;35.00;;;13.80;;
68923;SDS011;55961;52.156;20.942;2023-02-10T12:59:02;19.57;;;7.03;;
68923;SDS011;55961;52.156;20.942;2023-02-10T13:01:33;28.92;;;12.00;;
68923;SDS011;55961;52.156;20.942;2023-02-10T13:06:40;27.75;;;13.32;;
68923;SDS011;55961;52.156;20.942;2023-02-10T13:15:02;38.72;;;14.60;;
68923;SDS011;55961;52.156;20.942;2023-02-10T13:17:48;28.25;;;12.40;;
68923;SDS011;55961;52.156;20.942;2023-02-10T13:20:19;29.67;;;12.65;;
68923;SDS011;55961;52.156;20.942;2023-02-10T13:22:53;31.73;;;11.38;;
68923;SDS011;55961;52.156;20.942;2023-02-10T13:25:54;31.67;;;12.40;;
68923;SDS011;55961;52.156;20.942;2023-02-10T13:36:04;33.75;;;13.93;;
68923;SDS011;55961;52.156;20.942;2023-02-10T13:38:34;34.97;;;12.43;;
68923;SDS011;55961;52.156;20.942;2023-02-10T13:41:01;27.40;;;11.98;;
68923;SDS011;55961;52.156;20.942;2023-02-10T13:43:53;38.22;;;16.10;;
68923;SDS011;55961;52.156;20.942;2023-02-10T13:46:30;29.63;;;11.63;;
68923;SDS011;55961;52.156;20.942;2023-02-10T13:48:57;33.92;;;13.40;;
68923;SDS011;55961;52.156;20.942;2023-02-10T13:51:30;26.97;;;11.43;;
68923;SDS011;55961;52.156;20.942;2023-02-10T13:53:58;26.88;;;11.40;;
68923;SDS011;55961;52.156;20.942;2023-02-10T13:56:28;28.45;;;11.85;;
68923;SDS011;55961;52.156;20.942;2023-02-10T13:59:00;38.03;;;14.50;;
68923;SDS011;55961;52.156;20.942;2023-02-10T14:04:40;31.70;;;11.87;;
68923;SDS011;55961;52.156;20.942;2023-02-10T14:07:15;35.00;;;13.05;;
68923;SDS011;55961;52.156;20.942;2023-02-10T14:12:56;41.55;;;17.30;;
68923;SDS011;55961;52.156;20.942;2023-02-10T14:15:41;36.05;;;15.38;;
68923;SDS011;55961;52.156;20.942;2023-02-10T14:20:57;43.78;;;17.20;;
68923;SDS011;55961;52.156;20.942;2023-02-10T14:23:36;29.85;;;11.25;;
68923;SDS011;55961;52.156;20.942;2023-02-10T14:26:06;46.88;;;17.85;;
68923;SDS011;55961;52.156;20.942;2023-02-10T14:28:39;36.07;;;14.50;;
68923;SDS011;55961;52.156;20.942;2023-02-10T14:31:11;42.45;;;15.55;;
68923;SDS011;55961;52.156;20.942;2023-02-10T14:33:51;42.08;;;17.10;;
68923;SDS011;55961;52.156;20.942;2023-02-10T14:36:19;38.08;;;15.63;;
68923;SDS011;55961;52.156;20.942;2023-02-10T14:38:48;34.10;;;12.38;;
68923;SDS011;55961;52.156;20.942;2023-02-10T14:41:23;35.93;;;12.93;;
68923;SDS011;55961;52.156;20.942;2023-02-10T14:43:50;33.70;;;12.88;;
68923;SDS011;55961;52.156;20.942;2023-02-10T14:46:31;35.22;;;14.00;;
68923;SDS011;55961;52.156;20.942;2023-02-10T14:49:08;35.60;;;14.70;;
68923;SDS011;55961;52.156;20.942;2023-02-10T14:51:39;49.03;;;19.35;;
68923;SDS011;55961;52.156;20.942;2023-02-10T14:54:09;33.43;;;13.37;;
68923;SDS011;55961;52.156;20.942;2023-02-10T14:56:51;32.72;;;12.98;;
68923;SDS011;55961;52.156;20.942;2023-02-10T14:59:22;43.28;;;17.98;;
68923;SDS011;55961;52.156;20.942;2023-02-10T15:01:52;29.33;;;12.27;;
68923;SDS011;55961;52.156;20.942;2023-02-10T15:04:24;32.47;;;12.52;;
68923;SDS011;55961;52.156;20.942;2023-02-10T15:06:55;36.67;;;14.37;;
68923;SDS011;55961;52.156;20.942;2023-02-10T15:09:24;27.55;;;12.93;;
68923;SDS011;55961;52.156;20.942;2023-02-10T15:12:00;37.50;;;14.20;;
68923;SDS011;55961;52.156;20.942;2023-02-10T15:17:30;31.60;;;13.00;;
68923;SDS011;55961;52.156;20.942;2023-02-10T15:20:52;48.47;;;17.47;;
68923;SDS011;55961;52.156;20.942;2023-02-10T15:27:52;40.60;;;14.75;;
68923;SDS011;55961;52.156;20.942;2023-02-10T15:30:21;37.28;;;14.90;;
68923;SDS011;55961;52.156;20.942;2023-02-10T15:32:53;42.27;;;16.97;;
68923;SDS011;55961;52.156;20.942;2023-02-10T15:35:21;26.95;;;11.50;;
68923;SDS011;55961;52.156;20.942;2023-02-10T15:37:49;36.40;;;16.30;;
68923;SDS011;55961;52.156;20.942;2023-02-10T15:40:19;43.25;;;18.23;;
68923;SDS011;55961;52.156;20.942;2023-02-10T15:45:48;57.83;;;21.57;;
68923;SDS011;55961;52.156;20.942;2023-02-10T15:48:20;45.20;;;17.08;;
68923;SDS011;55961;52.156;20.942;2023-02-10T15:50:48;55.15;;;20.98;;
68923;SDS011;55961;52.156;20.942;2023-02-10T15:53:18;47.60;;;19.42;;
68923;SDS011;55961;52.156;20.942;2023-02-10T15:55:46;60.77;;;23.47;;
68923;SDS011;55961;52.156;20.942;2023-02-10T15:58:13;54.38;;;20.90;;
68923;SDS011;55961;52.156;20.942;2023-02-10T16:00:41;54.58;;;21.83;;
68923;SDS011;55961;52.156;20.942;2023-02-10T16:03:09;37.58;;;14.73;;
68923;SDS011;55961;52.156;20.942;2023-02-10T16:05:36;45.25;;;17.13;;
68923;SDS011;55961;52.156;20.942;2023-02-10T16:08:05;46.10;;;18.73;;
68923;SDS011;55961;52.156;20.942;2023-02-10T16:10:34;52.60;;;21.90;;
68923;SDS011;55961;52.156;20.942;2023-02-10T16:13:00;47.25;;;19.63;;
68923;SDS011;55961;52.156;20.942;2023-02-10T16:15:27;48.92;;;20.35;;
68923;SDS011;55961;52.156;20.942;2023-02-10T16:17:55;44.20;;;17.87;;
68923;SDS011;55961;52.156;20.942;2023-02-10T16:20:25;40.35;;;17.88;;
68923;SDS011;55961;52.156;20.942;2023-02-10T16:22:53;43.30;;;18.10;;
68923;SDS011;55961;52.156;20.942;2023-02-10T16:25:21;41.75;;;15.82;;
68923;SDS011;55961;52.156;20.942;2023-02-10T16:27:48;39.17;;;15.40;;
68923;SDS011;55961;52.156;20.942;2023-02-10T16:30:18;45.13;;;18.50;;
68923;SDS011;55961;52.156;20.942;2023-02-10T16:32:47;49.35;;;19.23;;
68923;SDS011;55961;52.156;20.942;2023-02-10T16:35:13;42.33;;;17.30;;
68923;SDS011;55961;52.156;20.942;2023-02-10T16:37:39;47.10;;;17.88;;
68923;SDS011;55961;52.156;20.942;2023-02-10T16:40:06;49.30;;;20.70;;
68923;SDS011;55961;52.156;20.942;2023-02-10T16:42:33;58.90;;;24.00;;
68923;SDS011;55961;52.156;20.942;2023-02-10T16:44:59;56.60;;;21.08;;
68923;SDS011;55961;52.156;20.942;2023-02-10T16:47:25;47.25;;;19.13;;
68923;SDS011;55961;52.156;20.942;2023-02-10T16:49:51;56.27;;;19.50;;
68923;SDS011;55961;52.156;20.942;2023-02-10T16:52:18;55.13;;;22.40;;